Time;durP1;ratioP1;P1;durP2;ratioP2;P2;SDS_P1;SDS_P2;PMS_P1;PMS_P2;Temp;Humidity;BMP_temperature;BMP_pressure;BME280_temperature;BME280_humidity;BME280_pressure;Samples;Min_cycle;Max_cycle;Signal;HPM_P1;HPM_P2
2022/06/06 00:01:17;;;;;;;0.50;0.50;;;15.00;99.90;;;;;;5137885;27;20438;-77
2022/06/06 00:03:44;;;;;;;1.20;0.60;;;15.00;99.90;;;;;;5137709;27;20488;-77
2022/06/06 00:06:13;;;;;;;0.40;0.40;;;15.10;99.90;;;;;;5137444;27;20973;-77
2022/06/06 00:08:41;;;;;;;0.67;0.40;;;15.10;99.90;;;;;;5137626;27;20446;-77
2022/06/06 00:11:09;;;;;;;0.60;0.50;;;15.10;99.90;;;;;;5137676;27;20453;-77
2022/06/06 00:13:37;;;;;;;0.50;0.50;;;15.00;99.90;;;;;;5137553;27;20457;-77
2022/06/06 00:16:05;;;;;;;0.40;0.40;;;15.10;99.90;;;;;;5137257;27;20952;-77
2022/06/06 00:18:33;;;;;;;1.03;0.33;;;15.00;99.90;;;;;;5137220;27;20865;-77
2022/06/06 00:21:00;;;;;;;0.40;0.40;;;14.90;99.90;;;;;;5137489;27;20494;-77
2022/06/06 00:23:27;;;;;;;0.50;0.50;;;15.00;99.90;;;;;;5137329;27;20476;-77
2022/06/06 00:25:54;;;;;;;0.60;0.50;;;15.00;99.90;;;;;;5137365;27;20449;-77
2022/06/06 00:28:21;;;;;;;1.13;0.77;;;15.00;99.90;;;;;;5137056;27;20517;-77
2022/06/06 00:30:47;;;;;;;0.77;0.60;;;14.90;99.90;;;;;;5136917;27;20473;-77
2022/06/06 00:36:01;;;;;;;0.40;0.30;;;14.90;99.90;;;;;;5136816;27;20832;-77
2022/06/06 00:38:28;;;;;;;0.40;0.40;;;14.90;99.90;;;;;;5137131;27;20441;-77
2022/06/06 00:40:55;;;;;;;0.63;0.40;;;14.90;99.90;;;;;;5137112;27;20438;-77
2022/06/06 00:43:21;;;;;;;0.50;0.50;;;14.90;99.90;;;;;;5136681;27;21007;-77
2022/06/06 00:45:50;;;;;;;0.40;0.40;;;15.00;99.90;;;;;;5137830;27;20801;-77
2022/06/06 00:48:24;;;;;;;2.20;0.40;;;14.90;99.90;;;;;;5136970;27;20447;-77
2022/06/06 00:50:56;;;;;;;0.40;0.30;;;15.00;99.90;;;;;;5136923;27;20461;-77
2022/06/06 00:53:27;;;;;;;4.43;1.70;;;15.00;99.90;;;;;;5136820;27;20469;-77
2022/06/06 00:55:59;;;;;;;1.37;0.50;;;15.00;99.90;;;;;;5136852;27;20438;-77
2022/06/06 00:58:29;;;;;;;0.80;0.40;;;15.00;99.90;;;;;;5136800;27;20429;-77
2022/06/06 01:00:56;;;;;;;0.70;0.60;;;15.00;99.90;;;;;;5137018;27;20445;-77
2022/06/06 01:03:26;;;;;;;0.67;0.53;;;15.00;99.90;;;;;;5136594;27;20489;-77
2022/06/06 01:05:55;;;;;;;0.70;0.40;;;14.90;99.90;;;;;;5136698;27;20422;-77
2022/06/06 01:08:23;;;;;;;0.50;0.50;;;14.90;99.90;;;;;;5136569;27;20454;-77
2022/06/06 01:10:50;;;;;;;0.50;0.50;;;14.80;99.90;;;;;;5136469;27;20478;-77
2022/06/06 01:13:22;;;;;;;0.30;0.30;;;14.80;99.90;;;;;;5136380;27;20462;-77
2022/06/06 01:16:04;;;;;;;0.30;0.30;;;14.80;99.90;;;;;;5136492;27;20430;-77
2022/06/06 01:18:45;;;;;;;0.40;0.40;;;14.80;99.90;;;;;;5136525;27;20426;-77
2022/06/06 01:21:45;;;;;;;0.50;0.50;;;14.70;99.90;;;;;;5136364;27;20430;-77
2022/06/06 01:24:28;;;;;;;0.40;0.40;;;14.70;99.90;;;;;;5136198;27;20458;-77
2022/06/06 01:27:06;;;;;;;0.73;0.60;;;14.70;99.90;;;;;;5136283;27;20418;-77
2022/06/06 01:29:40;;;;;;;0.70;0.50;;;14.70;99.90;;;;;;5136112;27;20559;-77
2022/06/06 01:32:11;;;;;;;0.90;0.40;;;14.70;99.90;;;;;;5136115;27;20431;-77
2022/06/06 01:34:40;;;;;;;0.60;0.60;;;14.70;99.90;;;;;;5135705;27;20486;-77
2022/06/06 01:37:24;;;;;;;2.13;0.80;;;14.80;99.90;;;;;;5135659;27;20450;-77
2022/06/06 01:39:51;;;;;;;0.53;0.40;;;14.80;99.90;;;;;;5135436;27;20418;-77
2022/06/06 01:42:24;;;;;;;0.40;0.40;;;14.80;99.90;;;;;;5135925;27;20434;-77
2022/06/06 01:44:57;;;;;;;2.10;0.50;;;14.80;99.90;;;;;;5135898;27;20426;-77
2022/06/06 01:47:28;;;;;;;1.33;0.60;;;14.80;99.90;;;;;;5135828;27;20427;-77
2022/06/06 01:49:55;;;;;;;0.50;0.30;;;14.80;99.90;;;;;;5135467;27;21011;-77
2022/06/06 01:52:23;;;;;;;0.70;0.70;;;14.70;99.90;;;;;;5135371;27;20442;-77
2022/06/06 01:54:54;;;;;;;1.70;0.53;;;14.70;99.90;;;;;;5135671;27;20453;-77
2022/06/06 01:57:22;;;;;;;0.40;0.40;;;14.70;99.90;;;;;;5135701;27;20431;-77
2022/06/06 01:59:49;;;;;;;0.50;0.43;;;14.70;99.90;;;;;;5135274;27;20438;-77
2022/06/06 02:02:17;;;;;;;0.60;0.50;;;14.70;99.90;;;;;;5135511;27;20465;-77
2022/06/06 02:04:44;;;;;;;0.80;0.77;;;14.60;99.90;;;;;;5135385;27;20466;-77
2022/06/06 02:07:11;;;;;;;0.67;0.47;;;14.60;99.90;;;;;;5135091;27;20813;-77
2022/06/06 02:09:38;;;;;;;1.57;0.60;;;14.60;99.90;;;;;;5135276;27;20486;-77
2022/06/06 02:12:05;;;;;;;2.87;1.10;;;14.60;99.90;;;;;;5135307;27;20449;-77
2022/06/06 02:14:32;;;;;;;0.57;0.50;;;14.60;99.90;;;;;;5135204;27;20465;-77
2022/06/06 02:16:59;;;;;;;0.97;0.40;;;14.60;99.90;;;;;;5135204;27;20442;-77
2022/06/06 02:19:27;;;;;;;0.40;0.40;;;14.60;99.90;;;;;;5135176;27;20446;-77
2022/06/06 02:21:54;;;;;;;0.87;0.80;;;14.60;99.90;;;;;;5135148;27;20453;-77
2022/06/06 02:24:20;;;;;;;3.37;0.67;;;14.60;99.90;;;;;;5134650;27;21012;-77
2022/06/06 02:26:47;;;;;;;0.60;0.60;;;14.60;99.90;;;;;;5135032;27;20506;-77
2022/06/06 02:29:14;;;;;;;0.70;0.37;;;14.60;99.90;;;;;;5134754;27;20426;-77
2022/06/06 02:31:41;;;;;;;1.00;0.50;;;14.60;99.90;;;;;;5134936;27;20481;-77
2022/06/06 02:34:09;;;;;;;1.23;0.53;;;14.60;99.90;;;;;;5134585;27;20485;-77
2022/06/06 02:36:38;;;;;;;0.60;0.50;;;14.60;99.90;;;;;;5135505;27;20437;-77
2022/06/06 02:39:05;;;;;;;0.77;0.50;;;14.60;99.90;;;;;;5134843;27;20451;-77
2022/06/06 02:41:32;;;;;;;0.57;0.57;;;14.60;99.90;;;;;;5134833;27;20504;-77
2022/06/06 02:43:59;;;;;;;0.60;0.60;;;14.60;99.90;;;;;;5134726;27;20565;-77
2022/06/06 02:46:26;;;;;;;4.20;0.70;;;14.60;99.90;;;;;;5134720;27;20493;-77
2022/06/06 02:48:53;;;;;;;0.50;0.40;;;14.60;99.90;;;;;;5134676;27;20450;-77
2022/06/06 02:51:19;;;;;;;1.53;0.70;;;14.60;99.90;;;;;;5133750;27;20481;-77
2022/06/06 02:53:49;;;;;;;1.97;0.67;;;14.60;99.90;;;;;;5134555;27;20532;-77
2022/06/06 02:56:15;;;;;;;0.73;0.50;;;14.60;99.90;;;;;;5134571;27;20446;-77
2022/06/06 02:58:42;;;;;;;0.50;0.40;;;14.60;99.90;;;;;;5134587;27;20438;-77
2022/06/06 03:01:11;;;;;;;0.50;0.50;;;14.60;99.90;;;;;;5134508;27;20442;-77
2022/06/06 03:03:39;;;;;;;1.07;0.97;;;14.60;99.90;;;;;;5134437;27;20466;-77
2022/06/06 03:06:23;;;;;;;0.60;0.50;;;14.60;99.90;;;;;;5134502;27;20458;-77
2022/06/06 03:09:02;;;;;;;0.57;0.57;;;14.60;99.90;;;;;;5134489;27;20430;-77
2022/06/06 03:11:43;;;;;;;1.07;0.60;;;14.50;99.90;;;;;;5134371;27;20462;-77
2022/06/06 03:14:25;;;;;;;0.63;0.63;;;14.50;99.90;;;;;;5134370;27;20462;-77
2022/06/06 03:23:11;;;;;;;0.70;0.63;;;14.40;99.90;;;;;;5134056;28;20852;-77
2022/06/06 03:25:45;;;;;;;0.80;0.40;;;14.40;99.90;;;;;;5134032;27;20469;-77
2022/06/06 03:28:20;;;;;;;0.50;0.50;;;14.30;99.90;;;;;;5134334;27;20430;-77
2022/06/06 03:31:00;;;;;;;0.63;0.57;;;14.30;99.90;;;;;;5134774;27;20465;-77
2022/06/06 03:33:35;;;;;;;0.40;0.40;;;14.30;99.90;;;;;;5134156;27;20470;-77
2022/06/06 03:36:10;;;;;;;1.27;0.50;;;14.30;99.90;;;;;;5133784;27;20484;-77
2022/06/06 03:38:45;;;;;;;0.77;0.40;;;14.30;99.90;;;;;;5134239;27;20426;-77
2022/06/06 03:41:22;;;;;;;1.03;0.70;;;14.40;99.90;;;;;;5133901;27;20429;-77
2022/06/06 03:43:57;;;;;;;1.40;0.50;;;14.40;99.90;;;;;;5134129;27;20461;-77
2022/06/06 03:46:31;;;;;;;0.83;0.60;;;14.40;99.90;;;;;;5134167;27;20433;-77
2022/06/06 03:49:17;;;;;;;0.30;0.30;;;14.40;99.90;;;;;;5134138;27;20426;-77
2022/06/06 03:51:59;;;;;;;0.50;0.50;;;14.40;99.90;;;;;;5134035;27;20488;-77
2022/06/06 03:54:36;;;;;;;0.40;0.33;;;14.40;99.90;;;;;;5133667;27;20474;-77
2022/06/06 03:57:13;;;;;;;0.53;0.50;;;14.50;99.90;;;;;;5133815;27;20773;-77
2022/06/06 03:59:42;;;;;;;0.60;0.60;;;14.60;99.90;;;;;;5134028;27;20440;-77
2022/06/06 04:02:11;;;;;;;0.50;0.50;;;14.70;99.90;;;;;;5134141;27;20448;-77
2022/06/06 04:04:38;;;;;;;0.40;0.40;;;14.70;99.90;;;;;;5137772;27;20475;-77
2022/06/06 04:07:05;;;;;;;1.47;1.00;;;14.70;99.90;;;;;;5137798;27;20446;-77
2022/06/06 04:09:33;;;;;;;0.77;0.50;;;14.70;99.90;;;;;;5137429;27;20961;-77
2022/06/06 04:12:16;;;;;;;0.60;0.50;;;14.70;99.90;;;;;;5137316;27;21046;-77
2022/06/06 04:14:51;;;;;;;0.40;0.40;;;14.80;99.90;;;;;;5137287;27;20991;-77
2022/06/06 04:17:28;;;;;;;0.77;0.50;;;14.80;99.90;;;;;;5137607;27;20437;-77
2022/06/06 04:20:10;;;;;;;0.50;0.40;;;14.80;99.90;;;;;;5137543;27;20510;-77
2022/06/06 04:22:50;;;;;;;1.30;0.77;;;14.80;99.90;;;;;;5137433;27;20435;-77
2022/06/06 04:25:31;;;;;;;0.60;0.60;;;14.90;99.90;;;;;;5137113;27;20430;-77
2022/06/06 04:28:07;;;;;;;0.50;0.50;;;14.90;99.90;;;;;;5137408;27;20426;-77
2022/06/06 04:30:42;;;;;;;0.50;0.40;;;14.90;99.90;;;;;;5137306;27;20457;-77
2022/06/06 04:33:18;;;;;;;1.07;0.70;;;15.00;99.90;;;;;;5137144;27;20560;-77
2022/06/06 04:35:58;;;;;;;1.23;0.90;;;15.00;99.90;;;;;;5136779;27;20567;-77
2022/06/06 04:38:31;;;;;;;0.40;0.40;;;15.00;99.90;;;;;;5136918;27;20877;-77
2022/06/06 04:41:09;;;;;;;0.70;0.50;;;15.10;99.90;;;;;;5137182;27;20804;-77
2022/06/06 04:43:42;;;;;;;1.10;0.67;;;15.10;99.90;;;;;;5136762;27;20973;-77
2022/06/06 04:46:18;;;;;;;0.40;0.40;;;15.20;99.90;;;;;;5137057;27;20429;-77
2022/06/06 04:48:46;;;;;;;0.50;0.43;;;15.20;99.90;;;;;;5136726;27;20921;-76
2022/06/06 04:51:18;;;;;;;0.97;0.50;;;15.30;99.90;;;;;;5136552;27;21004;-77
2022/06/06 04:53:48;;;;;;;1.20;0.77;;;15.40;99.90;;;;;;5136819;27;20834;-76
2022/06/06 04:56:16;;;;;;;0.57;0.50;;;15.50;99.90;;;;;;5136849;27;20453;-76
2022/06/06 04:58:46;;;;;;;0.53;0.40;;;15.60;99.90;;;;;;5136776;27;20454;-77
2022/06/06 05:01:15;;;;;;;0.53;0.53;;;15.70;99.90;;;;;;5136751;27;20435;-76
2022/06/06 05:03:42;;;;;;;0.40;0.40;;;15.80;99.90;;;;;;5136625;27;20473;-77
2022/06/06 05:06:23;;;;;;;0.87;0.60;;;15.90;99.90;;;;;;5136631;27;20450;-77
2022/06/06 05:09:07;;;;;;;0.50;0.50;;;16.00;99.90;;;;;;5137012;27;20438;-77
2022/06/06 05:11:43;;;;;;;0.60;0.50;;;16.00;99.90;;;;;;5136523;27;20469;-77
2022/06/06 05:14:26;;;;;;;2.73;2.23;;;16.00;99.90;;;;;;5135511;27;20462;-77
2022/06/06 05:17:11;;;;;;;1.97;0.50;;;16.10;99.90;;;;;;5136475;27;20426;-77
2022/06/06 05:20:02;;;;;;;1.37;0.57;;;16.20;99.90;;;;;;5136403;27;20507;-77
2022/06/06 05:22:56;;;;;;;0.50;0.50;;;16.20;99.90;;;;;;5136272;27;20515;-77
2022/06/06 05:25:40;;;;;;;0.53;0.47;;;16.20;99.90;;;;;;5135950;27;20426;-77
2022/06/06 05:28:34;;;;;;;0.63;0.63;;;16.20;99.90;;;;;;5136227;27;20431;-77
2022/06/06 05:31:11;;;;;;;0.70;0.63;;;16.20;99.90;;;;;;5136104;27;20823;-77
2022/06/06 05:33:46;;;;;;;0.77;0.70;;;16.30;99.90;;;;;;5135754;27;20470;-77
2022/06/06 05:36:35;;;;;;;0.50;0.50;;;16.30;99.90;;;;;;5136085;27;20423;-77
2022/06/06 05:39:23;;;;;;;0.50;0.50;;;16.30;99.90;;;;;;5136022;27;20430;-77
2022/06/06 05:42:03;;;;;;;0.53;0.53;;;16.40;99.90;;;;;;5135955;27;20434;-77
2022/06/06 05:44:37;;;;;;;0.93;0.70;;;16.40;99.90;;;;;;5135853;27;20454;-77
2022/06/06 05:47:16;;;;;;;0.60;0.60;;;16.60;99.90;;;;;;5135883;27;20421;-77
2022/06/06 05:50:00;;;;;;;0.50;0.50;;;16.80;99.90;;;;;;5135776;27;20434;-77
2022/06/06 05:52:50;;;;;;;1.87;0.90;;;16.90;99.90;;;;;;5135587;27;20459;-77
2022/06/06 05:55:28;;;;;;;0.80;0.50;;;17.10;99.90;;;;;;5135441;27;20488;-77
2022/06/06 05:58:20;;;;;;;0.63;0.63;;;17.20;99.90;;;;;;5135362;27;20925;-77
2022/06/06 06:01:00;;;;;;;1.17;0.70;;;17.40;99.90;;;;;;5135275;27;20434;-77
2022/06/06 06:04:00;;;;;;;0.80;0.57;;;17.40;99.90;;;;;;5135437;27;20495;-77
2022/06/06 06:06:31;;;;;;;0.50;0.50;;;17.60;99.90;;;;;;5135482;27;20491;-77
2022/06/06 06:09:24;;;;;;;1.10;0.60;;;17.80;99.90;;;;;;5135089;27;20431;-77
2022/06/06 06:12:30;;;;;;;1.10;0.80;;;17.90;99.90;;;;;;5134960;27;20469;-77
2022/06/06 06:15:10;;;;;;;0.50;0.50;;;18.00;99.90;;;;;;5135257;27;20442;-77
2022/06/06 06:17:39;;;;;;;1.17;1.07;;;18.10;99.90;;;;;;5134919;27;20441;-77
2022/06/06 06:20:10;;;;;;;1.10;0.63;;;18.20;99.90;;;;;;5135158;27;20457;-77
2022/06/06 06:22:41;;;;;;;0.90;0.67;;;18.20;99.90;;;;;;5135499;27;20446;-77
2022/06/06 06:25:09;;;;;;;0.80;0.80;;;18.30;99.90;;;;;;5134985;27;20495;-77
2022/06/06 06:27:37;;;;;;;1.77;0.60;;;18.50;99.90;;;;;;5134699;27;20797;-77
2022/06/06 06:30:04;;;;;;;0.70;0.70;;;18.50;99.90;;;;;;5135181;27;20804;-78
2022/06/06 06:32:44;;;;;;;0.60;0.60;;;18.70;99.90;;;;;;5134825;27;20485;-77
2022/06/06 06:35:20;;;;;;;1.37;0.77;;;18.70;99.90;;;;;;5134535;27;20470;-77
2022/06/06 06:38:19;;;;;;;1.33;0.77;;;18.80;99.90;;;;;;5134667;27;20503;-78
2022/06/06 06:40:53;;;;;;;0.73;0.60;;;18.90;99.90;;;;;;5134986;27;20935;-77
2022/06/06 06:43:44;;;;;;;0.90;0.80;;;19.10;99.90;;;;;;5134780;27;20461;-78
2022/06/06 06:46:15;;;;;;;0.70;0.70;;;19.30;99.90;;;;;;5134458;27;20939;-77
2022/06/06 06:48:46;;;;;;;0.70;0.60;;;19.40;99.90;;;;;;5134459;27;20877;-78
2022/06/06 06:51:21;;;;;;;1.00;0.90;;;19.60;99.90;;;;;;5134628;27;20530;-78
2022/06/06 06:54:11;;;;;;;1.10;0.83;;;19.50;99.90;;;;;;5134621;27;20465;-78
2022/06/06 06:56:59;;;;;;;0.63;0.63;;;19.60;99.90;;;;;;5131834;27;20461;-78
2022/06/06 06:59:34;;;;;;;1.20;1.10;;;19.80;99.90;;;;;;5134667;27;20430;-78
2022/06/06 07:11:04;;;;;;;2.20;0.70;;;20.30;99.90;;;;;;5134479;27;20405;-78
2022/06/06 07:13:44;;;;;;;0.80;0.63;;;20.40;99.90;;;;;;5134669;27;20473;-78
2022/06/06 07:16:19;;;;;;;0.90;0.70;;;20.50;99.90;;;;;;5134448;27;20770;-78
2022/06/06 07:18:50;;;;;;;1.10;0.80;;;20.50;99.90;;;;;;5134414;27;20494;-78
2022/06/06 07:21:18;;;;;;;1.00;0.83;;;20.60;99.90;;;;;;5134068;27;20936;-78
2022/06/06 07:23:48;;;;;;;0.90;0.77;;;20.60;99.90;;;;;;5134352;27;20994;-78
2022/06/06 07:26:16;;;;;;;0.97;0.83;;;20.50;99.90;;;;;;5134406;27;20422;-78
2022/06/06 07:28:42;;;;;;;0.70;0.70;;;20.30;99.90;;;;;;5134298;27;20449;-78
2022/06/06 07:31:20;;;;;;;1.37;0.70;;;20.20;99.90;;;;;;5133898;27;20932;-78
2022/06/06 07:34:09;;;;;;;0.80;0.80;;;20.10;99.90;;;;;;5133999;27;20469;-79
2022/06/06 07:36:48;;;;;;;0.67;0.67;;;20.00;99.90;;;;;;5134838;27;20429;-78
2022/06/06 07:39:31;;;;;;;1.20;0.80;;;20.10;99.90;;;;;;5138051;27;20434;-78
2022/06/06 07:42:16;;;;;;;0.50;0.50;;;20.40;99.90;;;;;;5138340;27;20434;-79
2022/06/06 07:45:01;;;;;;;1.23;0.73;;;20.90;99.90;;;;;;5138232;27;20482;-78
2022/06/06 07:47:45;;;;;;;1.47;1.00;;;21.50;99.90;;;;;;5138224;27;20252;-79
2022/06/06 07:50:19;;;;;;;1.10;1.00;;;22.20;99.90;;;;;;5138182;27;20195;-79
2022/06/06 07:52:55;;;;;;;1.02;0.90;;;23.00;99.90;;;;;;5137998;27;20232;-79
2022/06/06 07:55:27;;;;;;;2.60;0.90;;;23.70;99.90;;;;;;5138028;27;20210;-79
2022/06/06 07:58:00;;;;;;;0.95;0.93;;;24.00;99.90;;;;;;5138065;27;20218;-79
2022/06/06 08:00:28;;;;;;;1.05;0.90;;;23.90;99.90;;;;;;5137989;27;20184;-79
2022/06/06 08:02:58;;;;;;;1.40;0.60;;;23.60;99.90;;;;;;5137523;27;20258;-79
2022/06/06 08:05:48;;;;;;;0.90;0.75;;;23.20;99.90;;;;;;5137595;27;20635;-79
2022/06/06 08:08:26;;;;;;;0.90;0.70;;;22.50;99.90;;;;;;5124318;27;20206;-79
2022/06/06 08:10:54;;;;;;;0.70;0.60;;;22.50;99.90;;;;;;5137561;27;20183;-79
2022/06/06 08:13:27;;;;;;;0.70;0.65;;;22.90;99.90;;;;;;5137252;27;20595;-80
2022/06/06 08:16:15;;;;;;;0.57;0.57;;;23.60;99.90;;;;;;5137850;27;20200;-80
2022/06/06 08:19:01;;;;;;;0.50;0.50;;;24.00;99.90;;;;;;5137627;27;20271;-80
2022/06/06 08:21:35;;;;;;;0.75;0.75;;;24.20;99.90;;;;;;5137209;27;20196;-80
2022/06/06 08:24:05;;;;;;;1.23;1.13;;;24.60;99.90;;;;;;5137439;27;20223;-80
2022/06/06 08:26:37;;;;;;;1.05;0.63;;;24.80;99.90;;;;;;5137693;27;20608;-80
2022/06/06 08:29:06;;;;;;;1.40;0.80;;;24.70;99.90;;;;;;5137438;27;20544;-80
2022/06/06 08:31:33;;;;;;;0.50;0.50;;;24.10;99.90;;;;;;5137292;27;20227;-80
2022/06/06 08:34:00;;;;;;;0.60;0.60;;;24.00;99.90;;;;;;5137010;27;20302;-80
2022/06/06 08:36:58;;;;;;;0.50;0.50;;;24.10;99.90;;;;;;5137293;27;20199;-79
2022/06/06 08:39:32;;;;;;;0.60;0.60;;;24.20;99.90;;;;;;5137208;27;20211;-80
2022/06/06 08:42:19;;;;;;;0.77;0.77;;;24.70;99.90;;;;;;5137189;27;20183;-80
2022/06/06 08:45:18;;;;;;;0.52;0.52;;;25.30;99.90;;;;;;5136701;27;20644;-80
2022/06/06 08:47:56;;;;;;;0.60;0.60;;;25.40;99.90;;;;;;5137055;27;20234;-80
2022/06/06 08:51:00;;;;;;;0.70;0.70;;;25.90;99.90;;;;;;5135694;27;20284;-80
2022/06/06 08:54:03;;;;;;;3.15;0.63;;;26.50;99.90;;;;;;5136794;27;20240;-81
2022/06/06 08:57:06;;;;;;;0.80;0.80;;;26.30;99.90;;;;;;5136819;27;20759;-88
2022/06/06 09:00:03;;;;;;;3.22;0.60;;;26.40;99.90;;;;;;5118261;27;20207;-89
2022/06/06 09:02:55;;;;;;;0.68;0.68;;;25.90;99.90;;;;;;5137715;27;20209;-89
2022/06/06 09:05:51;;;;;;;0.70;0.70;;;25.30;99.90;;;;;;5137590;27;20296;-89
2022/06/06 09:09:00;;;;;;;1.35;0.75;;;24.90;99.90;;;;;;5106583;27;20204;-89
2022/06/06 09:11:59;;;;;;;0.60;0.60;;;24.80;99.90;;;;;;5137686;27;20204;-88
2022/06/06 09:14:54;;;;;;;0.70;0.70;;;24.40;99.90;;;;;;5137400;27;20216;-89
2022/06/06 09:17:57;;;;;;;1.45;0.73;;;24.20;99.90;;;;;;5111478;27;20199;-88
2022/06/06 09:20:47;;;;;;;0.55;0.55;;;23.70;99.90;;;;;;5137474;27;20216;-88
2022/06/06 09:24:05;;;;;;;0.60;0.52;;;23.30;99.90;;;;;;5137585;27;20605;-89
2022/06/06 09:26:45;;;;;;;0.95;0.55;;;23.00;99.90;;;;;;5074065;28;20704;-88
2022/06/06 09:29:43;;;;;;;0.70;0.70;;;23.20;99.90;;;;;;5074261;28;20185;-88
2022/06/06 09:32:38;;;;;;;0.60;0.60;;;23.60;99.90;;;;;;5128673;27;20215;-89
2022/06/06 09:35:22;;;;;;;0.70;0.70;;;24.00;99.90;;;;;;5137102;27;20257;-89
2022/06/06 09:38:02;;;;;;;1.00;0.73;;;24.00;99.90;;;;;;5136863;27;20176;-88
2022/06/06 09:40:35;;;;;;;0.98;0.70;;;24.10;99.90;;;;;;5137109;27;20555;-88
2022/06/06 09:43:11;;;;;;;0.60;0.50;;;24.00;99.90;;;;;;5136947;27;20220;-88
2022/06/06 09:46:11;;;;;;;0.55;0.55;;;23.80;99.90;;;;;;5138008;27;20227;-88
2022/06/06 09:49:24;;;;;;;1.45;0.65;;;23.70;99.90;;;;;;5126368;27;20211;-81
2022/06/06 09:52:23;;;;;;;0.70;0.70;;;23.90;99.90;;;;;;5072182;28;20186;-81
2022/06/06 09:59:02;;;;;;;0.85;0.60;;;24.30;99.90;;;;;;5132874;27;20230;-82
2022/06/06 10:02:04;;;;;;;0.70;0.70;;;23.90;99.90;;;;;;5135194;27;20192;-82
2022/06/06 10:05:03;;;;;;;0.80;0.80;;;23.80;99.90;;;;;;5135427;27;20323;-81
2022/06/06 10:08:10;;;;;;;1.13;0.55;;;23.80;99.90;;;;;;5135176;27;20546;-81
2022/06/06 10:11:02;;;;;;;0.50;0.50;;;24.00;99.90;;;;;;5135430;27;20203;-81
2022/06/06 10:13:46;;;;;;;1.05;0.95;;;24.10;99.90;;;;;;5135216;27;20227;-81
2022/06/06 10:16:27;;;;;;;0.90;0.60;;;24.10;99.90;;;;;;5135339;27;20191;-81
2022/06/06 10:19:12;;;;;;;0.70;0.70;;;24.10;99.90;;;;;;5135337;27;20207;-81
2022/06/06 10:22:17;;;;;;;0.70;0.70;;;24.00;99.90;;;;;;5135243;27;20274;-81
2022/06/06 10:25:07;;;;;;;0.50;0.50;;;24.10;99.90;;;;;;5134721;27;20219;-81
2022/06/06 10:27:49;;;;;;;5.15;0.60;;;24.40;99.90;;;;;;5135162;27;20185;-81
2022/06/06 10:30:22;;;;;;;0.50;0.50;;;24.60;99.90;;;;;;5135664;27;20192;-81
2022/06/06 10:33:16;;;;;;;1.17;0.60;;;24.30;99.90;;;;;;5134544;27;20231;-81
2022/06/06 10:35:58;;;;;;;0.52;0.52;;;24.20;99.90;;;;;;5134456;27;20232;-81
2022/06/06 10:39:07;;;;;;;1.45;0.80;;;23.80;99.90;;;;;;5134910;27;20191;-81
2022/06/06 10:41:58;;;;;;;0.40;0.40;;;23.60;99.90;;;;;;5104570;27;20252;-81
2022/06/06 10:44:57;;;;;;;0.63;0.63;;;23.70;99.90;;;;;;5131962;27;20706;-81
2022/06/06 10:47:40;;;;;;;0.52;0.52;;;23.90;99.90;;;;;;5134730;27;20185;-81
2022/06/06 10:50:16;;;;;;;0.60;0.60;;;24.20;99.90;;;;;;5134805;27;20188;-82
2022/06/06 10:53:15;;;;;;;0.50;0.50;;;24.30;99.90;;;;;;5134553;27;20224;-82
2022/06/06 10:56:16;;;;;;;0.50;0.50;;;24.20;99.90;;;;;;5124429;27;20681;-81
2022/06/06 10:59:12;;;;;;;0.98;0.60;;;24.10;99.90;;;;;;5134616;27;20184;-81
2022/06/06 11:02:30;;;;;;;1.15;1.05;;;24.10;99.90;;;;;;5134259;27;20557;-81
2022/06/06 11:05:25;;;;;;;0.60;0.60;;;23.70;99.90;;;;;;5134254;27;20549;-81
2022/06/06 11:08:21;;;;;;;0.60;0.60;;;23.50;99.90;;;;;;5134123;27;20670;-81
2022/06/06 11:11:21;;;;;;;1.33;0.70;;;23.20;99.90;;;;;;5134243;27;20642;-81
2022/06/06 11:14:02;;;;;;;0.80;0.80;;;22.90;99.90;;;;;;5133301;27;20252;-81
2022/06/06 11:17:08;;;;;;;0.50;0.50;;;22.70;99.90;;;;;;5134454;27;20176;-81
2022/06/06 11:19:58;;;;;;;0.60;0.57;;;22.50;99.90;;;;;;5134377;27;20207;-81
2022/06/06 11:22:29;;;;;;;0.80;0.80;;;22.50;99.90;;;;;;5134360;27;20184;-81
2022/06/06 11:25:06;;;;;;;0.60;0.60;;;22.50;99.90;;;;;;5134404;27;20180;-81
2022/06/06 11:28:14;;;;;;;0.80;0.60;;;22.50;99.90;;;;;;5134033;27;20185;-81
2022/06/06 11:31:33;;;;;;;0.60;0.50;;;22.40;99.90;;;;;;5134260;27;20204;-79
2022/06/06 11:34:48;;;;;;;0.50;0.47;;;22.20;99.90;;;;;;5070395;28;21155;-80
2022/06/06 11:37:41;;;;;;;0.60;0.50;;;22.00;99.90;;;;;;5070751;28;20446;-80
2022/06/06 11:40:57;;;;;;;0.80;0.50;;;21.90;99.90;;;;;;5130641;27;20204;-81
2022/06/06 11:43:53;;;;;;;0.60;0.60;;;21.90;99.90;;;;;;5133845;27;20220;-81
2022/06/06 11:46:58;;;;;;;0.63;0.60;;;22.00;99.90;;;;;;5134295;27;20203;-81
2022/06/06 11:49:50;;;;;;;0.70;0.53;;;22.10;99.90;;;;;;5133979;27;20457;-81
2022/06/06 11:52:53;;;;;;;0.60;0.60;;;22.10;99.90;;;;;;5134108;27;20207;-81
2022/06/06 11:55:39;;;;;;;0.60;0.60;;;21.90;99.90;;;;;;5134075;27;20429;-81
2022/06/06 11:58:39;;;;;;;0.70;0.60;;;21.80;99.90;;;;;;5134144;27;20544;-81
2022/06/06 12:01:32;;;;;;;0.73;0.60;;;21.70;99.90;;;;;;5134060;27;20414;-81
2022/06/06 12:04:19;;;;;;;0.50;0.50;;;21.50;99.90;;;;;;5120444;27;20841;-81
2022/06/06 12:07:11;;;;;;;0.50;0.50;;;21.50;99.90;;;;;;5123341;27;20441;-81
2022/06/06 12:09:49;;;;;;;7.80;0.70;;;21.40;99.90;;;;;;5133960;27;20430;-81
2022/06/06 12:12:43;;;;;;;0.50;0.50;;;21.50;99.90;;;;;;5133892;27;20429;-80
2022/06/06 12:15:40;;;;;;;0.70;0.50;;;21.70;99.90;;;;;;5133567;27;20957;-81
2022/06/06 12:18:23;;;;;;;0.93;0.80;;;22.10;99.90;;;;;;5133893;27;20778;-81
2022/06/06 12:21:16;;;;;;;0.93;0.77;;;22.40;99.90;;;;;;5133908;27;20204;-81
2022/06/06 12:24:00;;;;;;;0.60;0.60;;;22.60;99.90;;;;;;5134801;27;20223;-81
2022/06/06 12:26:42;;;;;;;0.70;0.70;;;22.50;99.90;;;;;;5137566;27;20479;-81
2022/06/06 12:29:32;;;;;;;0.80;0.80;;;22.50;99.90;;;;;;5137452;27;20486;-81
2022/06/06 12:32:14;;;;;;;0.80;0.60;;;22.50;99.90;;;;;;5137457;27;20192;-81
2022/06/06 12:34:48;;;;;;;0.70;0.60;;;22.50;99.90;;;;;;5136891;27;20236;-81
2022/06/06 12:37:22;;;;;;;0.80;0.67;;;22.40;99.90;;;;;;5137080;27;20200;-81
2022/06/06 12:40:03;;;;;;;0.60;0.50;;;22.40;99.90;;;;;;5137220;27;20430;-80
2022/06/06 12:42:43;;;;;;;0.70;0.60;;;22.40;99.90;;;;;;5137145;27;20430;-81
2022/06/06 12:45:42;;;;;;;0.43;0.43;;;22.50;99.90;;;;;;5136877;27;20434;-81
2022/06/06 12:48:31;;;;;;;0.50;0.50;;;22.50;99.90;;;;;;5131815;27;20204;-81
2022/06/06 12:51:07;;;;;;;1.80;0.60;;;22.50;99.90;;;;;;5136735;27;20931;-81
2022/06/06 12:54:08;;;;;;;1.00;0.80;;;22.60;99.90;;;;;;5136881;27;20489;-85
2022/06/06 12:56:53;;;;;;;0.63;0.60;;;22.60;99.90;;;;;;5136873;27;20211;-81
2022/06/06 12:59:46;;;;;;;0.63;0.63;;;22.50;99.90;;;;;;5136549;27;20654;-80
2022/06/06 13:02:27;;;;;;;0.60;0.60;;;22.50;99.90;;;;;;5136870;27;20487;-80
2022/06/06 13:05:06;;;;;;;0.50;0.40;;;22.40;99.90;;;;;;5136813;27;20433;-80
2022/06/06 13:07:53;;;;;;;0.50;0.50;;;22.40;99.90;;;;;;5136790;27;20206;-80
2022/06/06 13:10:35;;;;;;;0.70;0.70;;;22.20;99.90;;;;;;5136698;27;20506;-80
2022/06/06 13:13:35;;;;;;;0.60;0.60;;;22.10;99.90;;;;;;5136489;27;20481;-80
2022/06/06 13:16:08;;;;;;;0.50;0.50;;;21.90;99.90;;;;;;5102502;27;20449;-80
2022/06/06 13:18:54;;;;;;;0.50;0.50;;;21.80;99.90;;;;;;5136224;27;20945;-80
2022/06/06 13:21:32;;;;;;;1.80;0.50;;;21.60;99.90;;;;;;5136476;27;20429;-80
2022/06/06 13:24:24;;;;;;;2.40;0.50;;;21.40;99.90;;;;;;5136080;27;20465;-80
2022/06/06 13:26:55;;;;;;;0.50;0.50;;;21.30;99.90;;;;;;5125431;27;20446;-80
2022/06/06 13:29:31;;;;;;;0.50;0.50;;;21.10;99.90;;;;;;5135979;27;20438;-80
2022/06/06 13:32:11;;;;;;;0.60;0.60;;;21.10;99.90;;;;;;5136250;27;20494;-80
2022/06/06 13:35:00;;;;;;;0.60;0.60;;;21.00;99.90;;;;;;5135499;27;20536;-81
2022/06/06 13:37:42;;;;;;;0.83;0.70;;;21.10;99.90;;;;;;5136167;27;20422;-80
2022/06/06 13:40:25;;;;;;;0.70;0.63;;;21.10;99.90;;;;;;5135767;27;20791;-80
2022/06/06 13:43:18;;;;;;;0.50;0.50;;;21.00;99.90;;;;;;5136800;27;20790;-80
2022/06/06 13:45:49;;;;;;;0.60;0.60;;;20.90;99.90;;;;;;5135703;27;20441;-80
2022/06/06 13:48:55;;;;;;;0.70;0.70;;;20.90;99.90;;;;;;5135961;27;20430;-80
2022/06/06 13:51:38;;;;;;;0.50;0.50;;;20.90;99.90;;;;;;5135606;27;20406;-80
2022/06/06 13:54:06;;;;;;;1.17;0.40;;;21.00;99.90;;;;;;5135386;27;20473;-80
2022/06/06 13:56:52;;;;;;;0.50;0.40;;;21.00;99.90;;;;;;5135766;27;20437;-80
2022/06/06 13:59:55;;;;;;;1.30;0.53;;;21.10;99.90;;;;;;5135684;27;20425;-80
2022/06/06 14:02:35;;;;;;;0.50;0.50;;;21.00;99.90;;;;;;5135339;27;20909;-81
2022/06/06 14:05:17;;;;;;;0.70;0.60;;;21.00;99.90;;;;;;5135303;27;20953;-80
2022/06/06 14:07:57;;;;;;;0.60;0.60;;;21.10;99.90;;;;;;5135559;27;20422;-80
2022/06/06 14:10:38;;;;;;;0.63;0.60;;;21.00;99.90;;;;;;5135498;27;20429;-80
2022/06/06 14:13:12;;;;;;;0.70;0.70;;;21.10;99.90;;;;;;5135257;27;20472;-80
2022/06/06 14:15:44;;;;;;;0.57;0.57;;;21.10;99.90;;;;;;5135388;27;20426;-80
2022/06/06 14:18:13;;;;;;;1.30;0.80;;;21.10;99.90;;;;;;5135061;27;20479;-80